Historique des mesures à Cassis (13260), France
Quotidien Résumé Fevrier 27, 2017 Unités:  US    Métrique   Métrique/US
« Précédent (Jour)
Suivant (Jour) »
Quotidien Hebdomadaire Mensuel Annuel Période au choix
  Maximum: Minimum: Moyenne:
Température: 32 °F 48.4 °F 52.7 °F
Point de rosée: 32 °F 42.1 °F 47.1 °F
Humidité: Humidity % 75 % 77 %
Vitesse du vent: WindSpeedKMH mph 0.0 mph 0.6 mph
Rafales: WindSpeedGustKMH mph - -
Vent:- - SE
Pression: 0 in 29.8 in -
Précipitations: 12.7 in    
Historical Graphs
 
 
Mesures pour : Fevrier 27, 2017
Heure Temperature Point de rosée Pression Vent Vitesse du vent Rafales Humidité Pluie (par heure) Conditions
32 °F 32 °F 0 in Calm     Humidity % 0 in SoftwareType W/m2
00:10 48.9 °F 42.1 °F 30 in Calm     77 % 0 in open2300-1.11 W/m2
01:11 48.9 °F 42.3 °F 30 in Calm     78 % 0 in open2300-1.11 W/m2
02:10 48.4 °F 42.1 °F 29.9 in Calm     79 % 0 in open2300-1.11 W/m2
03:11 48.9 °F 43 °F 29.9 in Calm     80 % 0 in open2300-1.11 W/m2
04:10 49.8 °F 44.2 °F 29.9 in Calm     81 % 0 in open2300-1.11 W/m2
05:11 50.7 °F 44.8 °F 29.9 in Calm     80 % 0 in open2300-1.11 W/m2
06:10 51.6 °F 45.7 °F 29.9 in ESE 1.8 mph 1.8 mph 80 % 0 in open2300-1.11 W/m2
07:11 52 °F 46.2 °F 29.9 in Calm   2.1 mph 81 % 0 in open2300-1.11 W/m2
08:10 52.5 °F 46.9 °F 29.9 in Calm     81 % 0 in open2300-1.11 W/m2
09:11 53.8 °F 47.8 °F 29.9 in Calm     80 % 0 in open2300-1.11 W/m2
10:10 54.3 °F 47.7 °F 29.9 in Calm   1.4 mph 78 % 0 in open2300-1.11 W/m2
11:11 55.6 °F 48.4 °F 29.9 in Calm     77 % 0 in open2300-1.11 W/m2
12:10 56.5 °F 48.9 °F 29.9 in Calm     76 % 0 in open2300-1.11 W/m2
13:11 56.8 °F 48.9 °F 29.9 in SE 6.1 mph 6.1 mph 75 % 0 in open2300-1.11 W/m2
14:10 56.1 °F 50 °F 29.9 in Calm     80 % 0 in open2300-1.11 W/m2
15:11 56.3 °F 50.7 °F 29.8 in Calm     82 % 0 in open2300-1.11 W/m2
16:10 56.3 °F 50.5 °F 29.8 in Calm     81 % 0 in open2300-1.11 W/m2
17:11 56.1 °F 50 °F 29.8 in Calm     80 % 0 in open2300-1.11 W/m2
18:10 55.2 °F 50.2 °F 29.8 in Calm     83 % 12.7 in open2300-1.11 W/m2
19:11 55.2 °F 50.4 °F 29.8 in Calm   5.0 mph 84 % 0 in open2300-1.11 W/m2
20:10 55.6 °F 51.1 °F 29.8 in Calm   6.1 mph 85 % 0 in open2300-1.11 W/m2
21:11 55.9 °F 51.4 °F 29.8 in Calm   9.0 mph 85 % 0 in open2300-1.11 W/m2
22:10 55.9 °F 51.4 °F 29.8 in SE 7.6 mph 7.6 mph 85 % 0 in open2300-1.11 W/m2
23:11 56.1 °F 51.6 °F 29.8 in Calm   6.1 mph 85 % 0 in open2300-1.11 W/m2
Observations météo à CASSIS
WU-History script by Weather Underground - 1 mb